This is the latest recevied weather packets stored in our database for station/object MB7UKB-10. If no packets are shown the sender has not sent any weather packets the latest 1 day(s).
| Time | Temp. | Humidity | Pressure | Rain* | Wind** | Luminosity | Snow |
|---|---|---|---|---|---|---|---|
| 1778037609 | 8.89° C | 77% | 1013.1 hPa | 0 mm | 0.89 m/s, 126° | - | - |
| 1778035809 | 8.89° C | 77% | 1013.2 hPa | 0 mm | 0.45 m/s, 123° | - | - |
| 1778034009 | 9.44° C | 76% | 1013.1 hPa | 0 mm | 1.34 m/s, 355° | - | - |
| 1778032209 | 9.44° C | 77% | 1013.4 hPa | 0 mm | 0.89 m/s, 37° | - | - |
| 1778030409 | 9.44° C | 77% | 1013.2 hPa | 0 mm | 0 m/s | - | - |
| 1778028609 | 10° C | 75% | 1013.2 hPa | 0 mm | 0 m/s | - | - |
| 1778026808 | 10° C | 75% | 1013.2 hPa | 0 mm | 0 m/s | - | - |
| 1778025008 | 10.56° C | 72% | 1013.2 hPa | 0 mm | 0.45 m/s, 227° | - | - |
| 1778023209 | 11.11° C | 70% | 1013.4 hPa | 0 mm | 0 m/s | - | - |
| 1778021408 | 11.11° C | 69% | 1013.2 hPa | 0 mm | 0.89 m/s, 252° | - | - |
| 1778019609 | 11.67° C | 68% | 1013.2 hPa | 0 mm | 0.89 m/s, 265° | - | - |
| 1778017808 | 12.22° C | 66% | 1012.9 hPa | 0 mm | 0.89 m/s, 245° | - | - |
| 1778016008 | 12.22° C | 65% | 1012.7 hPa | 0 mm | 1.34 m/s, 337° | - | - |
| 1778014208 | 12.78° C | 69% | 1012.8 hPa | 0 mm | 1.34 m/s, 153° | - | - |
| 1778012408 | 13.33° C | 66% | 1012.4 hPa | 0 mm | 0.45 m/s, 315° | - | - |
| 1778010608 | 13.89° C | 64% | 1012.1 hPa | 0 mm | 0.45 m/s, 231° | - | - |
| 1778008808 | 13.89° C | 62% | 1011.8 hPa | 0 mm | 0.89 m/s, 61° | - | - |
| 1778007008 | 14.44° C | 61% | 1011.9 hPa | 0 mm | 0 m/s | - | - |
| 1778005208 | 15° C | 59% | 1011.7 hPa | 0 mm | 0 m/s | - | - |
| 1778003409 | 15.56° C | 57% | 1011.6 hPa | 0 mm | 0.89 m/s, 134° | - | - |
| 1778001608 | 15.56° C | 55% | 1011.8 hPa | 0 mm | 0.89 m/s, 224° | - | - |
| 1777999808 | 15.56° C | 56% | 1011.9 hPa | 0 mm | 1.34 m/s, 265° | - | - |
| 1777998008 | 15.56° C | 58% | 1011.8 hPa | 0 mm | 0 m/s | - | - |
| 1777996209 | 15° C | 60% | 1011.9 hPa | 0 mm | 0.89 m/s, 238° | - | - |
| 1777994409 | 15.56° C | 57% | 1012 hPa | 0 mm | 0 m/s | - | - |
* Rain latest hour (hover to see other rain measurements)
** Current wind speed in m/s (hover to see current wind gust speed)